Cathlamet — WYR7641 — position and weather

sailwx.info

Track history (hours):
 
Tides and Currents Weather Stations Pressure Air Temp Water Temp Dewpoint Dewpoint Depression Visibility Wind Speed Wind Dir Waves Ship Positions

Cathlamet

Owner: WASHINGTON, STATE OF; Dept. of Transportation, OLYMPIA, WA. More information available from US FCC via Universal Licensing System and Coast Guard Vessel Documentation Center.

Last reported at 2015-Aug-03 04:33 UTC. Time now 2015-Aug-03 04:39 UTC.
Position N 47°31' W 122°28'.

Length 100 m.

Type: Passenger vessel. MMSI: 366773070.

Date/timePositionNaut miles runAvg speedWind from/ knotsBaromVisibWave heightAir tempDewpointWater temp
2015-Aug-03 04:33N 47°31' W 122°28'116.0
2015-Aug-03 04:30N 47°31' W 122°29'4 3.8
2015-Aug-03 03:33N 47°31' W 122°24'0 0.8
2015-Aug-03 03:24N 47°31' W 122°24'4 4.4
2015-Aug-03 02:34N 47°31' W 122°29'112.4
2015-Aug-03 02:30N 47°31' W 122°28'1 0.8
2015-Aug-03 01:33N 47°31' W 122°27'0 2.0
2015-Aug-03 01:23N 47°31' W 122°28'0 0.0
2015-Aug-03 00:33N 47°31' W 122°28'0 0.4
2015-Aug-03 00:33N 47°31' W 122°28'2 2.1
2015-Aug-02 23:33N 47°31' W 122°25'0 1.1
2015-Aug-02 23:14N 47°31' W 122°24'0 0.5
2015-Aug-02 22:32N 47°31' W 122°24'0 0.7
2015-Aug-02 22:14N 47°31' W 122°24'4 5.7
2015-Aug-02 21:33N 47°31' W 122°30'0 0.1
2015-Aug-02 21:30N 47°31' W 122°30'4 3.8
2015-Aug-02 20:34N 47°31' W 122°25'115.6
2015-Aug-02 20:30N 47°31' W 122°26'0 0.4
2015-Aug-02 19:34N 47°31' W 122°26'113.2
2015-Aug-02 19:29N 47°31' W 122°27'1 0.7
2015-Aug-02 18:33N 47°31' W 122°28'0 4.9
2015-Aug-02 18:29N 47°31' W 122°28'0 0.4
2015-Aug-02 17:33N 47°31' W 122°28'0 3.5
2015-Aug-02 17:29N 47°31' W 122°28'2 2.0
2015-Aug-02 16:33N 47°31' W 122°25'112.6
2015-Aug-02 16:29N 47°31' W 122°26'1 1.5
2015-Aug-02 15:34N 47°31' W 122°24'112.6
2015-Aug-02 15:29N 47°31' W 122°26'1 1.4
2015-Aug-02 14:33N 47°31' W 122°28'0 0.0
2015-Aug-02 14:29N 47°31' W 122°28'0 0.0
2015-Aug-02 13:33N 47°31' W 122°28'0 0.0
2015-Aug-02 13:29N 47°31' W 122°28'0 0.0
2015-Aug-02 12:33N 47°31' W 122°28'0 0.0
2015-Aug-02 12:29N 47°31' W 122°28'0 0.0
2015-Aug-02 11:33N 47°31' W 122°28'0 0.0
2015-Aug-02 11:33N 47°31' W 122°28'0 0.0
2015-Aug-02 10:33N 47°31' W 122°28'0 0.0
2015-Aug-02 10:33N 47°31' W 122°28'0 0.0
2015-Aug-02 09:33N 47°31' W 122°28'0 0.0
2015-Aug-02 09:33N 47°31' W 122°28'0 0.0
2015-Aug-02 08:33N 47°31' W 122°28'0 0.0
2015-Aug-02 08:33N 47°31' W 122°28'0 0.0
2015-Aug-02 07:33N 47°31' W 122°28'0 0.0
2015-Aug-02 07:33N 47°31' W 122°28'0 0.0
2015-Aug-02 06:33N 47°31' W 122°28'0 0.0
2015-Aug-02 06:33N 47°31' W 122°28'0 0.1
2015-Aug-02 06:08N 47°31' W 122°28'1 1.7
2015-Aug-02 05:33N 47°31' W 122°26'2 2.2
2015-Aug-02 04:34N 47°31' W 122°30'0 0.0
2015-Aug-02 04:33N 47°31' W 122°30'2 2.4
2015-Aug-02 03:33N 47°31' W 122°26'012.8
2015-Aug-02 03:33N 47°31' W 122°26'2 1.7
2015-Aug-02 02:34N 47°31' W 122°24'1 3.0
2015-Aug-02 02:13N 47°31' W 122°26'1 1.9
2015-Aug-02 01:33N 47°31' W 122°24'0 0.7
2015-Aug-02 01:22N 47°31' W 122°24'0 0.2
2015-Aug-02 00:34N 47°31' W 122°24'012.8
2015-Aug-02 00:33N 47°31' W 122°24'0 0.2
2015-Aug-01 23:34N 47°31' W 122°24'0 3.0
2015-Aug-01 23:32N 47°31' W 122°24'1 0.6
2015-Aug-01 22:33N 47°31' W 122°24'110.9
2015-Aug-01 22:27N 47°31' W 122°25'2 2.0
2015-Aug-01 21:33N 47°31' W 122°28'0 2.8
2015-Aug-01 21:32N 47°31' W 122°28'0 0.2
2015-Aug-01 20:34N 47°31' W 122°28'0 7.9
2015-Aug-01 20:32N 47°31' W 122°28'0 0.0
2015-Aug-01 19:33N 47°31' W 122°28'0 0.3
2015-Aug-01 19:32N 47°31' W 122°28'1 0.8
2015-Aug-01 18:34N 47°31' W 122°27'015.5
2015-Aug-01 18:32N 47°31' W 122°26'1 1.3
2015-Aug-01 17:34N 47°31' W 122°28'012.2
2015-Aug-01 17:32N 47°31' W 122°28'3 2.7
2015-Aug-01 16:33N 47°31' W 122°24'011.5
2015-Aug-01 16:32N 47°31' W 122°25'1 0.6
2015-Aug-01 15:33N 47°31' W 122°24'012.9
2015-Aug-01 15:32N 47°31' W 122°25'2 2.2
2015-Aug-01 14:34N 47°31' W 122°28'0 0.2
2015-Aug-01 14:32N 47°31' W 122°28'0 0.0
2015-Aug-01 13:34N 47°31' W 122°28'0 0.0
2015-Aug-01 13:32N 47°31' W 122°28'0 0.0
2015-Aug-01 12:34N 47°31' W 122°28'0 0.0
2015-Aug-01 12:31N 47°31' W 122°28'0 0.0
2015-Aug-01 11:33N 47°31' W 122°28'0 0.0
2015-Aug-01 11:31N 47°31' W 122°28'0 0.0
2015-Aug-01 10:33N 47°31' W 122°28'0 0.0
2015-Aug-01 10:31N 47°31' W 122°28'0 0.0
2015-Aug-01 09:34N 47°31' W 122°28'0 0.0
2015-Aug-01 09:31N 47°31' W 122°28'0 0.0
2015-Aug-01 08:33N 47°31' W 122°28'0 0.1
2015-Aug-01 08:31N 47°31' W 122°28'0 0.0
2015-Aug-01 07:33N 47°31' W 122°28'0 0.1
2015-Aug-01 07:31N 47°31' W 122°28'0 0.0
2015-Aug-01 06:34N 47°31' W 122°28'0 0.0
2015-Aug-01 06:31N 47°31' W 122°28'0 0.0
2015-Aug-01 05:56N 47°31' W 122°28'0 0.0
2015-Aug-01 05:33N 47°31' W 122°28'3 2.8
2015-Aug-01 04:33N 47°31' W 122°24'0 2.6
2015-Aug-01 04:26N 47°31' W 122°24'4 4.3
2015-Aug-01 03:33N 47°31' W 122°30'0 0.1
2015-Aug-01 03:31N 47°31' W 122°30'4 4.3
2015-Aug-01 02:33N 47°31' W 122°24'1 2.6
2015-Aug-01 02:20N 47°31' W 122°25'4 4.5
2015-Aug-01 01:33N 47°31' W 122°30'0 3.2
2015-Aug-01 01:30N 47°31' W 122°30'2 1.7
2015-Aug-01 00:33N 47°31' W 122°27'0 9.2
2015-Aug-01 00:30N 47°31' W 122°28'0 0.3
2015-Jul-31 23:33N 47°31' W 122°28'110.5
2015-Jul-31 23:29N 47°31' W 122°29'3 3.6
2015-Jul-31 22:33N 47°31' W 122°24'1 4.0
2015-Jul-31 22:25N 47°32' W 122°25'2 2.0
2015-Jul-31 21:33N 47°31' W 122°27'115.8
2015-Jul-31 21:30N 47°31' W 122°26'1 0.6
2015-Jul-31 20:33N 47°31' W 122°26'116.7
2015-Jul-31 20:30N 47°31' W 122°25'3 3.5
2015-Jul-31 19:33N 47°31' W 122°30'0 0.0
2015-Jul-31 19:30N 47°31' W 122°30'4 4.3
2015-Jul-31 18:33N 47°31' W 122°24'1 3.8
2015-Jul-31 18:20N 47°31' W 122°25'1 1.1
2015-Jul-31 17:33N 47°31' W 122°24'111.8
2015-Jul-31 17:30N 47°31' W 122°25'2 2.2
2015-Jul-31 16:33N 47°31' W 122°28'0 0.0
2015-Jul-31 16:29N 47°31' W 122°28'0 0.1
2015-Jul-31 15:34N 47°31' W 122°28'111.6
2015-Jul-31 15:29N 47°31' W 122°29'3 3.4
2015-Jul-31 14:33N 47°31' W 122°24'112.7
2015-Jul-31 14:29N 47°31' W 122°25'1 0.9
2015-Jul-31 13:34N 47°31' W 122°24'114.1
2015-Jul-31 13:29N 47°31' W 122°26'1 1.5
2015-Jul-31 12:33N 47°31' W 122°28'0 0.0
2015-Jul-31 12:29N 47°31' W 122°28'0 0.0
2015-Jul-31 11:33N 47°31' W 122°28'1 6.8
2015-Jul-31 11:29N 47°31' W 122°28'1 1.0
2015-Jul-31 10:34N 47°31' W 122°29'0 2.9
2015-Jul-31 10:29N 47°31' W 122°30'1 1.4
2015-Jul-31 09:33N 47°31' W 122°28'0 0.4
2015-Jul-31 09:23N 47°31' W 122°28'1 1.3
2015-Jul-31 08:34N 47°31' W 122°29'023.9
2015-Jul-31 08:34N 47°31' W 122°29'1 0.5
2015-Jul-31 07:34N 47°31' W 122°30'0 0.0
2015-Jul-31 07:33N 47°31' W 122°30'4 3.7
2015-Jul-31 06:34N 47°31' W 122°24'072.9
2015-Jul-31 06:34N 47°31' W 122°24'4 8.6
2015-Jul-31 06:08N 47°31' W 122°30'4 6.8
2015-Jul-31 05:33N 47°31' W 122°24'0 0.0
2015-Jul-31 04:33N 47°31' W 122°24'1 1.2
2015-Jul-31 04:03N 47°31' W 122°25'2 4.7
2015-Jul-31 03:34N 47°31' W 122°28'014.6
2015-Jul-31 03:33N 47°31' W 122°28'3 2.8
2015-Jul-31 02:33N 47°31' W 122°24'010.0
2015-Jul-31 02:33N 47°31' W 122°24'4 3.9
2015-Jul-31 01:33N 47°31' W 122°30'0 0.0
2015-Jul-31 01:32N 47°31' W 122°30'3 2.9
2015-Jul-31 00:34N 47°31' W 122°26'016.0
2015-Jul-31 00:33N 47°31' W 122°26'1 1.5
2015-Jul-30 23:33N 47°31' W 122°24'1 6.2
2015-Jul-30 23:28N 47°32' W 122°25'1 0.7
2015-Jul-30 22:33N 47°31' W 122°24'0 0.4
2015-Jul-30 22:17N 47°31' W 122°24'2 2.3
2015-Jul-30 21:33N 47°32' W 122°26'017.7
2015-Jul-30 21:33N 47°32' W 122°26'1 0.7
2015-Jul-30 20:34N 47°31' W 122°25'016.3
2015-Jul-30 20:32N 47°31' W 122°25'3 3.2
2015-Jul-30 19:34N 47°31' W 122°30'1 2.6
2015-Jul-30 19:16N 47°31' W 122°29'3 4.6
2015-Jul-30 18:33N 47°31' W 122°24'1 5.7
2015-Jul-30 18:22N 47°31' W 122°25'1 1.1
2015-Jul-30 17:33N 47°31' W 122°24'014.3
2015-Jul-30 17:32N 47°31' W 122°25'2 2.2
2015-Jul-30 16:34N 47°31' W 122°28'0 0.0
2015-Jul-30 16:31N 47°31' W 122°28'0 0.0
2015-Jul-30 15:33N 47°31' W 122°28'0 0.0
2015-Jul-30 15:32N 47°31' W 122°28'2 2.5
2015-Jul-30 14:34N 47°31' W 122°24'010.8
2015-Jul-30 14:32N 47°31' W 122°25'0 0.4
2015-Jul-30 13:33N 47°31' W 122°24'013.2
2015-Jul-30 13:32N 47°31' W 122°25'2 2.2
2015-Jul-30 12:33N 47°31' W 122°28'0 0.0
2015-Jul-30 12:31N 47°31' W 122°28'0 0.0
2015-Jul-30 11:33N 47°31' W 122°28'0 4.7
2015-Jul-30 11:30N 47°31' W 122°28'1 1.2
2015-Jul-30 10:33N 47°31' W 122°29'0 3.5
2015-Jul-30 10:31N 47°31' W 122°30'1 1.3
2015-Jul-30 09:33N 47°31' W 122°28'0 0.0
2015-Jul-30 09:31N 47°31' W 122°28'1 1.4
2015-Jul-30 08:33N 47°31' W 122°30'0 1.5
2015-Jul-30 08:31N 47°31' W 122°30'0 0.1
2015-Jul-30 07:33N 47°31' W 122°30'0 0.0
2015-Jul-30 07:31N 47°31' W 122°30'3 3.5
2015-Jul-30 06:41N 47°31' W 122°25'217.2
2015-Jul-30 06:34N 47°31' W 122°28'1 7.1
2015-Jul-30 06:26N 47°31' W 122°30'1 1.5
2015-Jul-30 05:34N 47°31' W 122°28'0 0.3
2015-Jul-30 04:40N 47°31' W 122°28'0 0.5
2015-Jul-30 04:34N 47°31' W 122°28'0 0.2
2015-Jul-30 03:34N 47°31' W 122°28'112.5
2015-Jul-30 03:30N 47°31' W 122°29'3 3.6
2015-Jul-30 02:34N 47°31' W 122°24'0 0.7
2015-Jul-30 02:10N 47°31' W 122°24'4 6.0
2015-Jul-30 01:33N 47°31' W 122°30'0 0.0
2015-Jul-30 01:30N 47°31' W 122°30'4 4.3
2015-Jul-30 00:33N 47°31' W 122°24'0 3.1
2015-Jul-30 00:25N 47°31' W 122°24'0 0.5
2015-Jul-29 23:33N 47°31' W 122°24'0 4.1
2015-Jul-29 23:30N 47°31' W 122°24'0 0.2
2015-Jul-29 22:33N 47°31' W 122°24'0 0.6
2015-Jul-29 22:14N 47°31' W 122°24'3 4.2
2015-Jul-29 21:34N 47°31' W 122°28'117.2
2015-Jul-29 21:29N 47°31' W 122°26'1 1.1
2015-Jul-29 20:34N 47°31' W 122°28'114.8
2015-Jul-29 20:29N 47°31' W 122°26'1 1.4
2015-Jul-29 19:34N 47°31' W 122°28'114.5
2015-Jul-29 19:29N 47°31' W 122°30'4 4.3
2015-Jul-29 18:33N 47°31' W 122°24'1 4.8
2015-Jul-29 18:19N 47°31' W 122°25'1 1.5
2015-Jul-29 17:33N 47°31' W 122°24'0 5.8
2015-Jul-29 17:29N 47°31' W 122°24'2 2.6
2015-Jul-29 16:33N 47°31' W 122°28'0 0.1
2015-Jul-29 15:42N 47°31' W 122°28'0 0.1
2015-Jul-29 15:33N 47°31' W 122°28'0 3.0
2015-Jul-29 15:32N 47°31' W 122°28'2 1.7
2015-Jul-29 14:33N 47°31' W 122°25'0 9.1
2015-Jul-29 14:32N 47°31' W 122°26'1 1.3
2015-Jul-29 13:33N 47°31' W 122°24'0 6.6
2015-Jul-29 13:32N 47°31' W 122°24'3 2.7
2015-Jul-29 12:33N 47°31' W 122°28'0 0.0
2015-Jul-29 12:32N 47°31' W 122°28'0 0.0
2015-Jul-29 11:33N 47°31' W 122°28'0 0.0
2015-Jul-29 11:32N 47°31' W 122°28'1 1.1
2015-Jul-29 10:34N 47°31' W 122°29'0 5.5
2015-Jul-29 10:32N 47°31' W 122°30'1 1.3
2015-Jul-29 09:33N 47°31' W 122°28'0 0.0
2015-Jul-29 09:31N 47°31' W 122°28'1 1.3
2015-Jul-29 08:33N 47°31' W 122°30'0 0.0
2015-Jul-29 08:32N 47°31' W 122°30'2 1.9
2015-Jul-29 07:33N 47°31' W 122°27'115.2
2015-Jul-29 07:31N 47°31' W 122°28'3 2.9
2015-Jul-29 06:33N 47°31' W 122°24'0 0.9
2015-Jul-29 06:26N 47°31' W 122°24'412.3
2015-Jul-29 06:06N 47°31' W 122°30'2 3.7
2015-Jul-29 05:33N 47°31' W 122°27'1 0.8
2015-Jul-29 04:34N 47°31' W 122°28'0 8.2
2015-Jul-29 04:31N 47°31' W 122°28'1 0.5
2015-Jul-29 03:33N 47°31' W 122°28'113.6
2015-Jul-29 03:31N 47°31' W 122°29'3 3.4
2015-Jul-29 02:33N 47°31' W 122°24'1 1.1
2015-Jul-29 02:05N 47°31' W 122°25'3 5.9
2015-Jul-29 01:34N 47°31' W 122°30'0 2.4
2015-Jul-29 01:30N 47°31' W 122°30'3 3.6
2015-Jul-29 00:33N 47°31' W 122°25'117.1
2015-Jul-29 00:31N 47°31' W 122°26'1 1.1
2015-Jul-28 23:34N 47°31' W 122°27'115.5
2015-Jul-28 23:31N 47°31' W 122°28'3 3.3
2015-Jul-28 22:34N 47°31' W 122°24'0 1.1
2015-Jul-28 22:25N 47°31' W 122°24'2 1.9
2015-Jul-28 21:33N 47°31' W 122°26'113.1
2015-Jul-28 21:30N 47°31' W 122°25'2 1.7
2015-Jul-28 20:34N 47°31' W 122°28'1 9.7
2015-Jul-28 20:29N 47°31' W 122°27'1 0.9
2015-Jul-28 19:33N 47°31' W 122°28'0 4.8
2015-Jul-28 19:29N 47°31' W 122°28'3 3.0
2015-Jul-28 18:33N 47°31' W 122°24'1 2.7
2015-Jul-28 18:20N 47°31' W 122°25'1 0.8
2015-Jul-28 17:33N 47°31' W 122°24'0 7.5
2015-Jul-28 17:30N 47°31' W 122°24'2 2.5
2015-Jul-28 16:33N 47°31' W 122°28'0 0.1
2015-Jul-28 16:30N 47°31' W 122°28'0 0.1
2015-Jul-28 15:34N 47°31' W 122°28'1 9.8
2015-Jul-28 15:29N 47°31' W 122°29'2 2.6
2015-Jul-28 14:33N 47°31' W 122°25'1 9.6
2015-Jul-28 14:29N 47°31' W 122°26'2 1.8
2015-Jul-28 13:34N 47°31' W 122°24'112.4
2015-Jul-28 13:29N 47°31' W 122°25'2 2.1
2015-Jul-28 12:33N 47°31' W 122°28'0 0.0
2015-Jul-28 12:29N 47°31' W 122°28'0 0.0
2015-Jul-28 11:33N 47°31' W 122°28'0 3.1
2015-Jul-28 11:29N 47°31' W 122°28'1 1.2
2015-Jul-28 10:34N 47°31' W 122°29'0 0.5
2015-Jul-28 09:59N 47°31' W 122°30'2 5.7
2015-Jul-28 09:34N 47°31' W 122°26'116.5
2015-Jul-28 09:29N 47°31' W 122°24'1 1.6
2015-Jul-28 08:33N 47°31' W 122°27'116.3
2015-Jul-28 08:28N 47°31' W 122°25'2 2.5
2015-Jul-28 07:34N 47°31' W 122°28'212.0
2015-Jul-28 07:24N 47°31' W 122°25'3 3.8
2015-Jul-28 06:33N 47°31' W 122°30'0 0.0
2015-Jul-28 06:28N 47°31' W 122°30'3 5.3
2015-Jul-28 05:53N 47°31' W 122°25'1 3.9
2015-Jul-28 05:34N 47°31' W 122°27'1 1.4
2015-Jul-28 04:33N 47°31' W 122°25'0 0.0
2015-Jul-28 04:33N 47°31' W 122°25'2 2.4
2015-Jul-28 03:34N 47°31' W 122°29'0 9.4
2015-Jul-28 03:33N 47°31' W 122°29'3 3.1
2015-Jul-28 02:33N 47°31' W 122°24'0 0.7
2015-Jul-28 02:08N 47°31' W 122°24'4 6.3
2015-Jul-28 01:33N 47°31' W 122°30'0 1.4
2015-Jul-28 01:33N 47°31' W 122°30'4 4.0
2015-Jul-28 00:33N 47°31' W 122°24'0 2.8
2015-Jul-28 00:22N 47°31' W 122°25'0 0.6
2015-Jul-27 23:33N 47°31' W 122°24'1 8.3
2015-Jul-27 23:28N 47°32' W 122°25'1 0.8
2015-Jul-27 22:33N 47°31' W 122°24'1 2.5
2015-Jul-27 22:13N 47°32' W 122°25'3 4.2
2015-Jul-27 21:34N 47°31' W 122°29'012.0
2015-Jul-27 21:32N 47°31' W 122°29'1 1.0
2015-Jul-27 20:34N 47°31' W 122°28'0 5.1
2015-Jul-27 20:32N 47°31' W 122°28'0 0.2
2015-Jul-27 19:34N 47°31' W 122°28'0 2.8
2015-Jul-27 19:32N 47°31' W 122°28'3 2.8
2015-Jul-27 18:33N 47°31' W 122°24'0 1.8
2015-Jul-27 18:22N 47°31' W 122°24'0 0.2
2015-Jul-27 17:34N 47°31' W 122°24'013.3
2015-Jul-27 17:32N 47°31' W 122°24'2 2.4
2015-Jul-27 16:34N 47°31' W 122°28'0 7.6
2015-Jul-27 16:32N 47°31' W 122°28'0 0.3
2015-Jul-27 15:34N 47°31' W 122°28'015.0
2015-Jul-27 15:32N 47°31' W 122°29'3 2.9
2015-Jul-27 14:34N 47°32' W 122°25'0 5.9
2015-Jul-27 14:31N 47°32' W 122°25'1 0.7
2015-Jul-27 13:34N 47°31' W 122°24'0 8.2
2015-Jul-27 13:31N 47°31' W 122°24'2 2.6
2015-Jul-27 12:33N 47°31' W 122°28'0 0.0
2015-Jul-27 12:32N 47°31' W 122°28'0 0.0
2015-Jul-27 11:33N 47°31' W 122°28'0 2.5
2015-Jul-27 11:31N 47°31' W 122°28'1 1.3
2015-Jul-27 10:33N 47°31' W 122°30'0 3.0
2015-Jul-27 10:31N 47°31' W 122°30'1 1.3
2015-Jul-27 09:33N 47°31' W 122°28'0 0.0
2015-Jul-27 09:31N 47°31' W 122°28'1 1.3
2015-Jul-27 08:34N 47°31' W 122°30'0 4.5
2015-Jul-27 08:31N 47°31' W 122°29'0 0.3
2015-Jul-27 07:33N 47°31' W 122°30'0 0.0
2015-Jul-27 07:31N 47°31' W 122°30'4 4.2
2015-Jul-27 06:33N 47°31' W 122°24'1 3.4
2015-Jul-27 06:21N 47°31' W 122°25'313.4
2015-Jul-27 06:06N 47°31' W 122°30'1 2.5
2015-Jul-27 05:33N 47°31' W 122°28'0 0.0
2015-Jul-27 04:33N 47°31' W 122°28'0 8.6
2015-Jul-27 04:31N 47°31' W 122°27'0 0.3
2015-Jul-27 03:34N 47°31' W 122°28'114.7
2015-Jul-27 03:31N 47°31' W 122°29'3 3.5
2015-Jul-27 02:34N 47°31' W 122°24'1 2.9
2015-Jul-27 02:20N 47°31' W 122°25'1 0.8
2015-Jul-27 01:33N 47°31' W 122°24'0 3.1
2015-Jul-27 01:26N 47°31' W 122°24'0 0.5
2015-Jul-27 00:34N 47°31' W 122°24'0 2.7
2015-Jul-27 00:30N 47°31' W 122°24'3 3.1
2015-Jul-26 23:34N 47°31' W 122°28'0 7.2
2015-Jul-26 23:30N 47°31' W 122°28'0 0.0
2015-Jul-26 22:33N 47°31' W 122°28'0 0.0
2015-Jul-26 22:30N 47°31' W 122°28'1 1.1
2015-Jul-26 21:34N 47°31' W 122°27'116.6
2015-Jul-26 21:30N 47°31' W 122°25'2 1.6
2015-Jul-26 20:33N 47°31' W 122°27'116.2
2015-Jul-26 20:30N 47°31' W 122°26'2 2.6
2015-Jul-26 19:33N 47°31' W 122°30'0 0.0
2015-Jul-26 19:25N 47°31' W 122°30'4 4.7
2015-Jul-26 18:34N 47°31' W 122°24'110.4
2015-Jul-26 18:29N 47°31' W 122°25'2 2.2
2015-Jul-26 17:33N 47°31' W 122°28'0 0.0
2015-Jul-26 17:30N 47°31' W 122°28'0 0.0
2015-Jul-26 16:34N 47°31' W 122°28'0 0.0
2015-Jul-26 16:29N 47°31' W 122°28'3 2.8
2015-Jul-26 15:33N 47°31' W 122°24'4 3.9
2015-Jul-26 14:33N 47°31' W 122°30'4 3.8
2015-Jul-26 13:33N 47°31' W 122°24'4 6.6
2015-Jul-26 12:58N 47°31' W 122°30'1 3.1
2015-Jul-26 12:33N 47°31' W 122°28'0 0.0
2015-Jul-26 12:29N 47°31' W 122°28'1 0.6
2015-Jul-26 11:34N 47°31' W 122°28'112.7
2015-Jul-26 11:29N 47°31' W 122°30'0 0.1
2015-Jul-26 10:33N 47°31' W 122°30'0 0.1
2015-Jul-26 10:29N 47°31' W 122°30'1 1.4
2015-Jul-26 09:33N 47°31' W 122°28'0 0.0
2015-Jul-26 09:28N 47°31' W 122°28'1 1.4
2015-Jul-26 08:34N 47°31' W 122°30'0 0.0
2015-Jul-26 08:33N 47°31' W 122°30'0 0.2
2015-Jul-26 07:33N 47°31' W 122°30'0 8.0
2015-Jul-26 07:33N 47°31' W 122°30'4 3.9
2015-Jul-26 06:33N 47°31' W 122°24'0 3.2
2015-Jul-26 06:28N 47°31' W 122°24'411.3
2015-Jul-26 06:08N 47°31' W 122°30'2 3.9
2015-Jul-26 05:34N 47°31' W 122°27'1 1.0
2015-Jul-26 04:34N 47°31' W 122°28'0 3.5
2015-Jul-26 04:33N 47°31' W 122°28'1 0.5
2015-Jul-26 03:33N 47°31' W 122°28'0 9.5
2015-Jul-26 03:33N 47°31' W 122°29'3 3.2
2015-Jul-26 02:33N 47°31' W 122°24'1 6.7
2015-Jul-26 02:28N 47°31' W 122°25'1 1.5
2015-Jul-26 01:33N 47°31' W 122°27'013.7
2015-Jul-26 01:33N 47°31' W 122°27'1 0.7
2015-Jul-26 00:33N 47°31' W 122°28'0 0.0
2015-Jul-26 00:33N 47°31' W 122°28'1 1.2
2015-Jul-25 23:34N 47°31' W 122°26'015.4
2015-Jul-25 23:33N 47°31' W 122°26'2 2.4
2015-Jul-25 22:33N 47°31' W 122°29'0 5.7
2015-Jul-25 22:32N 47°31' W 122°30'4 4.0
2015-Jul-25 21:33N 47°31' W 122°24'1 4.0
2015-Jul-25 21:17N 47°31' W 122°25'1 1.5
2015-Jul-25 20:34N 47°31' W 122°24'0 0.9
2015-Jul-25 20:12N 47°31' W 122°24'4 5.7
2015-Jul-25 19:34N 47°31' W 122°30'0 1.7
2015-Jul-25 19:32N 47°31' W 122°30'4 3.8
2015-Jul-25 18:33N 47°31' W 122°24'013.3
2015-Jul-25 18:32N 47°31' W 122°25'2 2.3
2015-Jul-25 17:33N 47°31' W 122°28'0 0.0
2015-Jul-25 17:32N 47°31' W 122°28'0 0.0
2015-Jul-25 16:33N 47°31' W 122°28'0 0.0
2015-Jul-25 16:31N 47°31' W 122°28'1 1.5
2015-Jul-25 15:33N 47°31' W 122°26'113.4
2015-Jul-25 15:31N 47°31' W 122°25'3 3.4
2015-Jul-25 14:33N 47°31' W 122°30'0 0.0
2015-Jul-25 14:32N 47°31' W 122°30'4 4.0
2015-Jul-25 13:34N 47°31' W 122°24'113.1
2015-Jul-25 13:31N 47°31' W 122°25'2 2.1
2015-Jul-25 12:33N 47°31' W 122°28'0 0.0
2015-Jul-25 12:31N 47°31' W 122°28'0 0.0
2015-Jul-25 11:33N 47°31' W 122°28'0 0.3
2015-Jul-25 11:31N 47°31' W 122°28'1 1.4
2015-Jul-25 10:33N 47°31' W 122°30'0 0.0
2015-Jul-25 10:06N 47°31' W 122°30'1 2.4
2015-Jul-25 09:34N 47°31' W 122°28'0 6.7
2015-Jul-25 09:31N 47°31' W 122°28'0 0.4
2015-Jul-25 08:33N 47°31' W 122°28'0 0.0
2015-Jul-25 08:31N 47°31' W 122°28'1 1.3
2015-Jul-25 07:33N 47°31' W 122°30'0 7.4
2015-Jul-25 07:31N 47°31' W 122°29'2 2.1
2015-Jul-25 06:34N 47°31' W 122°26'116.7
2015-Jul-25 06:31N 47°31' W 122°27'1 1.2
2015-Jul-25 06:01N 47°31' W 122°28'3 6.2
2015-Jul-25 05:34N 47°31' W 122°24'3 3.2
2015-Jul-25 04:34N 47°31' W 122°29'110.7
2015-Jul-25 04:30N 47°31' W 122°28'0 0.2
2015-Jul-25 03:33N 47°31' W 122°28'0 0.0
2015-Jul-25 03:30N 47°31' W 122°28'1 1.3
2015-Jul-25 02:33N 47°31' W 122°30'0 1.3
2015-Jul-25 02:30N 47°31' W 122°30'4 4.3
2015-Jul-25 01:34N 47°31' W 122°24'1 7.6
2015-Jul-25 01:25N 47°31' W 122°25'1 1.7
2015-Jul-25 00:34N 47°31' W 122°28'115.9
2015-Jul-25 00:30N 47°31' W 122°26'1 1.3
2015-Jul-24 23:33N 47°31' W 122°28'0 0.0
2015-Jul-24 23:30N 47°31' W 122°28'0 0.3
2015-Jul-24 22:34N 47°31' W 122°27'0 5.0
2015-Jul-24 22:30N 47°31' W 122°28'2 2.2
2015-Jul-24 21:34N 47°31' W 122°25'116.7
2015-Jul-24 21:30N 47°31' W 122°26'1 1.1
2015-Jul-24 20:33N 47°31' W 122°28'0 0.0
2015-Jul-24 20:30N 47°31' W 122°28'0 0.0
2015-Jul-24 19:33N 47°31' W 122°28'0 0.0
2015-Jul-24 19:29N 47°31' W 122°28'0 0.0
2015-Jul-24 18:33N 47°31' W 122°28'0 1.6
2015-Jul-24 18:29N 47°31' W 122°28'2 2.5
2015-Jul-24 17:33N 47°31' W 122°24'0 0.5
2015-Jul-24 17:09N 47°31' W 122°25'3 5.8
2015-Jul-24 16:33N 47°31' W 122°30'0 2.0
2015-Jul-24 16:19N 47°31' W 122°29'3 4.6
2015-Jul-24 15:33N 47°31' W 122°24'1 7.9
2015-Jul-24 15:29N 47°31' W 122°25'2 2.2
2015-Jul-24 14:33N 47°31' W 122°28'0 0.0
2015-Jul-24 14:29N 47°31' W 122°28'0 0.0
2015-Jul-24 13:33N 47°31' W 122°28'0 0.1
2015-Jul-24 13:29N 47°31' W 122°28'0 0.0
2015-Jul-24 12:34N 47°31' W 122°28'0 0.0
2015-Jul-24 12:33N 47°31' W 122°28'0 0.0
2015-Jul-24 11:34N 47°31' W 122°28'0 0.0
2015-Jul-24 11:33N 47°31' W 122°28'0 0.0
2015-Jul-24 10:33N 47°31' W 122°28'0 0.0
2015-Jul-24 10:33N 47°31' W 122°28'0 0.0
2015-Jul-24 09:33N 47°31' W 122°28'0 0.0
2015-Jul-24 09:33N 47°31' W 122°28'0 0.0
2015-Jul-24 08:33N 47°31' W 122°28'0 0.0
2015-Jul-24 08:33N 47°31' W 122°28'0 0.0
2015-Jul-24 07:33N 47°31' W 122°28'0 0.1
2015-Jul-24 07:28N 47°31' W 122°28'0 0.0
2015-Jul-24 06:33N 47°31' W 122°28'0 0.0
2015-Jul-24 06:22N 47°31' W 122°28'0 0.0
2015-Jul-24 06:03N 47°31' W 122°28'0 0.0
2015-Jul-24 05:33N 47°31' W 122°28'  
Track history (hours):
 
Tides and Currents Weather Stations Pressure Air Temp Water Temp Dewpoint Dewpoint Depression Visibility Wind Speed Wind Dir Waves Ship Positions

Cathlamet

Owner: WASHINGTON, STATE OF; Dept. of Transportation, OLYMPIA, WA. More information available from US FCC via Universal Licensing System and Coast Guard Vessel Documentation Center.

Last reported at 2015-Aug-03 04:33 UTC. Time now 2015-Aug-03 04:39 UTC.
Position N 47°31' W 122°28'.

Length 100 m.

Type: Passenger vessel. MMSI: 366773070.

Date/timePositionNaut miles runAvg speedWind from/ knotsBaromVisibWave heightAir tempDewpointWater temp
2015-Aug-03 04:33N 47°31' W 122°28'116.0
2015-Aug-03 04:30N 47°31' W 122°29'4 3.8
2015-Aug-03 03:33N 47°31' W 122°24'0 0.8
2015-Aug-03 03:24N 47°31' W 122°24'4 4.4
2015-Aug-03 02:34N 47°31' W 122°29'112.4
2015-Aug-03 02:30N 47°31' W 122°28'1 0.8
2015-Aug-03 01:33N 47°31' W 122°27'0 2.0
2015-Aug-03 01:23N 47°31' W 122°28'0 0.0
2015-Aug-03 00:33N 47°31' W 122°28'0 0.4
2015-Aug-03 00:33N 47°31' W 122°28'2 2.1
2015-Aug-02 23:33N 47°31' W 122°25'0 1.1
2015-Aug-02 23:14N 47°31' W 122°24'0 0.5
2015-Aug-02 22:32N 47°31' W 122°24'0 0.7
2015-Aug-02 22:14N 47°31' W 122°24'4 5.7
2015-Aug-02 21:33N 47°31' W 122°30'0 0.1
2015-Aug-02 21:30N 47°31' W 122°30'4 3.8
2015-Aug-02 20:34N 47°31' W 122°25'115.6
2015-Aug-02 20:30N 47°31' W 122°26'0 0.4
2015-Aug-02 19:34N 47°31' W 122°26'113.2
2015-Aug-02 19:29N 47°31' W 122°27'1 0.7
2015-Aug-02 18:33N 47°31' W 122°28'0 4.9
2015-Aug-02 18:29N 47°31' W 122°28'0 0.4
2015-Aug-02 17:33N 47°31' W 122°28'0 3.5
2015-Aug-02 17:29N 47°31' W 122°28'2 2.0
2015-Aug-02 16:33N 47°31' W 122°25'112.6
2015-Aug-02 16:29N 47°31' W 122°26'1 1.5
2015-Aug-02 15:34N 47°31' W 122°24'112.6
2015-Aug-02 15:29N 47°31' W 122°26'1 1.4
2015-Aug-02 14:33N 47°31' W 122°28'0 0.0
2015-Aug-02 14:29N 47°31' W 122°28'0 0.0
2015-Aug-02 13:33N 47°31' W 122°28'0 0.0
2015-Aug-02 13:29N 47°31' W 122°28'0 0.0
2015-Aug-02 12:33N 47°31' W 122°28'0 0.0
2015-Aug-02 12:29N 47°31' W 122°28'0 0.0
2015-Aug-02 11:33N 47°31' W 122°28'0 0.0
2015-Aug-02 11:33N 47°31' W 122°28'0 0.0
2015-Aug-02 10:33N 47°31' W 122°28'0 0.0
2015-Aug-02 10:33N 47°31' W 122°28'0 0.0
2015-Aug-02 09:33N 47°31' W 122°28'0 0.0
2015-Aug-02 09:33N 47°31' W 122°28'0 0.0
2015-Aug-02 08:33N 47°31' W 122°28'0 0.0
2015-Aug-02 08:33N 47°31' W 122°28'0 0.0
2015-Aug-02 07:33N 47°31' W 122°28'0 0.0
2015-Aug-02 07:33N 47°31' W 122°28'0 0.0
2015-Aug-02 06:33N 47°31' W 122°28'0 0.0
2015-Aug-02 06:33N 47°31' W 122°28'0 0.1
2015-Aug-02 06:08N 47°31' W 122°28'1 1.7
2015-Aug-02 05:33N 47°31' W 122°26'2 2.2
2015-Aug-02 04:34N 47°31' W 122°30'0 0.0
2015-Aug-02 04:33N 47°31' W 122°30'2 2.4
2015-Aug-02 03:33N 47°31' W 122°26'012.8
2015-Aug-02 03:33N 47°31' W 122°26'2 1.7
2015-Aug-02 02:34N 47°31' W 122°24'1 3.0
2015-Aug-02 02:13N 47°31' W 122°26'1 1.9
2015-Aug-02 01:33N 47°31' W 122°24'0 0.7
2015-Aug-02 01:22N 47°31' W 122°24'0 0.2
2015-Aug-02 00:34N 47°31' W 122°24'012.8
2015-Aug-02 00:33N 47°31' W 122°24'0 0.2
2015-Aug-01 23:34N 47°31' W 122°24'0 3.0
2015-Aug-01 23:32N 47°31' W 122°24'1 0.6
2015-Aug-01 22:33N 47°31' W 122°24'110.9
2015-Aug-01 22:27N 47°31' W 122°25'2 2.0
2015-Aug-01 21:33N 47°31' W 122°28'0 2.8
2015-Aug-01 21:32N 47°31' W 122°28'0 0.2
2015-Aug-01 20:34N 47°31' W 122°28'0 7.9
2015-Aug-01 20:32N 47°31' W 122°28'0 0.0
2015-Aug-01 19:33N 47°31' W 122°28'0 0.3
2015-Aug-01 19:32N 47°31' W 122°28'1 0.8
2015-Aug-01 18:34N 47°31' W 122°27'015.5
2015-Aug-01 18:32N 47°31' W 122°26'1 1.3
2015-Aug-01 17:34N 47°31' W 122°28'012.2
2015-Aug-01 17:32N 47°31' W 122°28'3 2.7
2015-Aug-01 16:33N 47°31' W 122°24'011.5
2015-Aug-01 16:32N 47°31' W 122°25'1 0.6
2015-Aug-01 15:33N 47°31' W 122°24'012.9
2015-Aug-01 15:32N 47°31' W 122°25'2 2.2
2015-Aug-01 14:34N 47°31' W 122°28'0 0.2
2015-Aug-01 14:32N 47°31' W 122°28'0 0.0
2015-Aug-01 13:34N 47°31' W 122°28'0 0.0
2015-Aug-01 13:32N 47°31' W 122°28'0 0.0
2015-Aug-01 12:34N 47°31' W 122°28'0 0.0
2015-Aug-01 12:31N 47°31' W 122°28'0 0.0
2015-Aug-01 11:33N 47°31' W 122°28'0 0.0
2015-Aug-01 11:31N 47°31' W 122°28'0 0.0
2015-Aug-01 10:33N 47°31' W 122°28'0 0.0
2015-Aug-01 10:31N 47°31' W 122°28'0 0.0
2015-Aug-01 09:34N 47°31' W 122°28'0 0.0
2015-Aug-01 09:31N 47°31' W 122°28'0 0.0
2015-Aug-01 08:33N 47°31' W 122°28'0 0.1
2015-Aug-01 08:31N 47°31' W 122°28'0 0.0
2015-Aug-01 07:33N 47°31' W 122°28'0 0.1
2015-Aug-01 07:31N 47°31' W 122°28'0 0.0
2015-Aug-01 06:34N 47°31' W 122°28'0 0.0
2015-Aug-01 06:31N 47°31' W 122°28'0 0.0
2015-Aug-01 05:56N 47°31' W 122°28'0 0.0
2015-Aug-01 05:33N 47°31' W 122°28'3 2.8
2015-Aug-01 04:33N 47°31' W 122°24'0 2.6
2015-Aug-01 04:26N 47°31' W 122°24'4 4.3
2015-Aug-01 03:33N 47°31' W 122°30'0 0.1
2015-Aug-01 03:31N 47°31' W 122°30'4 4.3
2015-Aug-01 02:33N 47°31' W 122°24'1 2.6
2015-Aug-01 02:20N 47°31' W 122°25'4 4.5
2015-Aug-01 01:33N 47°31' W 122°30'0 3.2
2015-Aug-01 01:30N 47°31' W 122°30'2 1.7
2015-Aug-01 00:33N 47°31' W 122°27'0 9.2
2015-Aug-01 00:30N 47°31' W 122°28'0 0.3
2015-Jul-31 23:33N 47°31' W 122°28'110.5
2015-Jul-31 23:29N 47°31' W 122°29'3 3.6
2015-Jul-31 22:33N 47°31' W 122°24'1 4.0
2015-Jul-31 22:25N 47°32' W 122°25'2 2.0
2015-Jul-31 21:33N 47°31' W 122°27'115.8
2015-Jul-31 21:30N 47°31' W 122°26'1 0.6
2015-Jul-31 20:33N 47°31' W 122°26'116.7
2015-Jul-31 20:30N 47°31' W 122°25'3 3.5
2015-Jul-31 19:33N 47°31' W 122°30'0 0.0
2015-Jul-31 19:30N 47°31' W 122°30'4 4.3
2015-Jul-31 18:33N 47°31' W 122°24'1 3.8
2015-Jul-31 18:20N 47°31' W 122°25'1 1.1
2015-Jul-31 17:33N 47°31' W 122°24'111.8
2015-Jul-31 17:30N 47°31' W 122°25'2 2.2
2015-Jul-31 16:33N 47°31' W 122°28'0 0.0
2015-Jul-31 16:29N 47°31' W 122°28'0 0.1
2015-Jul-31 15:34N 47°31' W 122°28'111.6
2015-Jul-31 15:29N 47°31' W 122°29'3 3.4
2015-Jul-31 14:33N 47°31' W 122°24'112.7
2015-Jul-31 14:29N 47°31' W 122°25'1 0.9
2015-Jul-31 13:34N 47°31' W 122°24'114.1
2015-Jul-31 13:29N 47°31' W 122°26'1 1.5
2015-Jul-31 12:33N 47°31' W 122°28'0 0.0
2015-Jul-31 12:29N 47°31' W 122°28'0 0.0
2015-Jul-31 11:33N 47°31' W 122°28'1 6.8
2015-Jul-31 11:29N 47°31' W 122°28'1 1.0
2015-Jul-31 10:34N 47°31' W 122°29'0 2.9
2015-Jul-31 10:29N 47°31' W 122°30'1 1.4
2015-Jul-31 09:33N 47°31' W 122°28'0 0.4
2015-Jul-31 09:23N 47°31' W 122°28'1 1.3
2015-Jul-31 08:34N 47°31' W 122°29'023.9
2015-Jul-31 08:34N 47°31' W 122°29'1 0.5
2015-Jul-31 07:34N 47°31' W 122°30'0 0.0
2015-Jul-31 07:33N 47°31' W 122°30'4 3.7
2015-Jul-31 06:34N 47°31' W 122°24'072.9
2015-Jul-31 06:34N 47°31' W 122°24'4 8.6
2015-Jul-31 06:08N 47°31' W 122°30'4 6.8
2015-Jul-31 05:33N 47°31' W 122°24'0 0.0
2015-Jul-31 04:33N 47°31' W 122°24'1 1.2
2015-Jul-31 04:03N 47°31' W 122°25'2 4.7
2015-Jul-31 03:34N 47°31' W 122°28'014.6
2015-Jul-31 03:33N 47°31' W 122°28'3 2.8
2015-Jul-31 02:33N 47°31' W 122°24'010.0
2015-Jul-31 02:33N 47°31' W 122°24'4 3.9
2015-Jul-31 01:33N 47°31' W 122°30'0 0.0
2015-Jul-31 01:32N 47°31' W 122°30'3 2.9
2015-Jul-31 00:34N 47°31' W 122°26'016.0
2015-Jul-31 00:33N 47°31' W 122°26'1 1.5
2015-Jul-30 23:33N 47°31' W 122°24'1 6.2
2015-Jul-30 23:28N 47°32' W 122°25'1 0.7
2015-Jul-30 22:33N 47°31' W 122°24'0 0.4
2015-Jul-30 22:17N 47°31' W 122°24'2 2.3
2015-Jul-30 21:33N 47°32' W 122°26'017.7
2015-Jul-30 21:33N 47°32' W 122°26'1 0.7
2015-Jul-30 20:34N 47°31' W 122°25'016.3
2015-Jul-30 20:32N 47°31' W 122°25'3 3.2
2015-Jul-30 19:34N 47°31' W 122°30'1 2.6
2015-Jul-30 19:16N 47°31' W 122°29'3 4.6
2015-Jul-30 18:33N 47°31' W 122°24'1 5.7
2015-Jul-30 18:22N 47°31' W 122°25'1 1.1
2015-Jul-30 17:33N 47°31' W 122°24'014.3
2015-Jul-30 17:32N 47°31' W 122°25'2 2.2
2015-Jul-30 16:34N 47°31' W 122°28'0 0.0
2015-Jul-30 16:31N 47°31' W 122°28'0 0.0
2015-Jul-30 15:33N 47°31' W 122°28'0 0.0
2015-Jul-30 15:32N 47°31' W 122°28'2 2.5
2015-Jul-30 14:34N 47°31' W 122°24'010.8
2015-Jul-30 14:32N 47°31' W 122°25'0 0.4
2015-Jul-30 13:33N 47°31' W 122°24'013.2
2015-Jul-30 13:32N 47°31' W 122°25'2 2.2
2015-Jul-30 12:33N 47°31' W 122°28'0 0.0
2015-Jul-30 12:31N 47°31' W 122°28'0 0.0
2015-Jul-30 11:33N 47°31' W 122°28'0 4.7
2015-Jul-30 11:30N 47°31' W 122°28'1 1.2
2015-Jul-30 10:33N 47°31' W 122°29'0 3.5
2015-Jul-30 10:31N 47°31' W 122°30'1 1.3
2015-Jul-30 09:33N 47°31' W 122°28'0 0.0
2015-Jul-30 09:31N 47°31' W 122°28'1 1.4
2015-Jul-30 08:33N 47°31' W 122°30'0 1.5
2015-Jul-30 08:31N 47°31' W 122°30'0 0.1
2015-Jul-30 07:33N 47°31' W 122°30'0 0.0
2015-Jul-30 07:31N 47°31' W 122°30'3 3.5
2015-Jul-30 06:41N 47°31' W 122°25'217.2
2015-Jul-30 06:34N 47°31' W 122°28'1 7.1
2015-Jul-30 06:26N 47°31' W 122°30'1 1.5
2015-Jul-30 05:34N 47°31' W 122°28'0 0.3
2015-Jul-30 04:40N 47°31' W 122°28'0 0.5
2015-Jul-30 04:34N 47°31' W 122°28'0 0.2
2015-Jul-30 03:34N 47°31' W 122°28'112.5
2015-Jul-30 03:30N 47°31' W 122°29'3 3.6
2015-Jul-30 02:34N 47°31' W 122°24'0 0.7
2015-Jul-30 02:10N 47°31' W 122°24'4 6.0
2015-Jul-30 01:33N 47°31' W 122°30'0 0.0
2015-Jul-30 01:30N 47°31' W 122°30'4 4.3
2015-Jul-30 00:33N 47°31' W 122°24'0 3.1
2015-Jul-30 00:25N 47°31' W 122°24'0 0.5
2015-Jul-29 23:33N 47°31' W 122°24'0 4.1
2015-Jul-29 23:30N 47°31' W 122°24'0 0.2
2015-Jul-29 22:33N 47°31' W 122°24'0 0.6
2015-Jul-29 22:14N 47°31' W 122°24'3 4.2
2015-Jul-29 21:34N 47°31' W 122°28'117.2
2015-Jul-29 21:29N 47°31' W 122°26'1 1.1
2015-Jul-29 20:34N 47°31' W 122°28'114.8
2015-Jul-29 20:29N 47°31' W 122°26'1 1.4
2015-Jul-29 19:34N 47°31' W 122°28'114.5
2015-Jul-29 19:29N 47°31' W 122°30'4 4.3
2015-Jul-29 18:33N 47°31' W 122°24'1 4.8
2015-Jul-29 18:19N 47°31' W 122°25'1 1.5
2015-Jul-29 17:33N 47°31' W 122°24'0 5.8
2015-Jul-29 17:29N 47°31' W 122°24'2 2.6
2015-Jul-29 16:33N 47°31' W 122°28'0 0.1
2015-Jul-29 15:42N 47°31' W 122°28'0 0.1
2015-Jul-29 15:33N 47°31' W 122°28'0 3.0
2015-Jul-29 15:32N 47°31' W 122°28'2 1.7
2015-Jul-29 14:33N 47°31' W 122°25'0 9.1
2015-Jul-29 14:32N 47°31' W 122°26'1 1.3
2015-Jul-29 13:33N 47°31' W 122°24'0 6.6
2015-Jul-29 13:32N 47°31' W 122°24'3 2.7
2015-Jul-29 12:33N 47°31' W 122°28'0 0.0
2015-Jul-29 12:32N 47°31' W 122°28'0 0.0
2015-Jul-29 11:33N 47°31' W 122°28'0 0.0
2015-Jul-29 11:32N 47°31' W 122°28'1 1.1
2015-Jul-29 10:34N 47°31' W 122°29'0 5.5
2015-Jul-29 10:32N 47°31' W 122°30'1 1.3
2015-Jul-29 09:33N 47°31' W 122°28'0 0.0
2015-Jul-29 09:31N 47°31' W 122°28'1 1.3
2015-Jul-29 08:33N 47°31' W 122°30'0 0.0
2015-Jul-29 08:32N 47°31' W 122°30'2 1.9
2015-Jul-29 07:33N 47°31' W 122°27'115.2
2015-Jul-29 07:31N 47°31' W 122°28'3 2.9
2015-Jul-29 06:33N 47°31' W 122°24'0 0.9
2015-Jul-29 06:26N 47°31' W 122°24'412.3
2015-Jul-29 06:06N 47°31' W 122°30'2 3.7
2015-Jul-29 05:33N 47°31' W 122°27'1 0.8
2015-Jul-29 04:34N 47°31' W 122°28'0 8.2
2015-Jul-29 04:31N 47°31' W 122°28'1 0.5
2015-Jul-29 03:33N 47°31' W 122°28'113.6
2015-Jul-29 03:31N 47°31' W 122°29'3 3.4
2015-Jul-29 02:33N 47°31' W 122°24'1 1.1
2015-Jul-29 02:05N 47°31' W 122°25'3 5.9
2015-Jul-29 01:34N 47°31' W 122°30'0 2.4
2015-Jul-29 01:30N 47°31' W 122°30'3 3.6
2015-Jul-29 00:33N 47°31' W 122°25'117.1
2015-Jul-29 00:31N 47°31' W 122°26'1 1.1
2015-Jul-28 23:34N 47°31' W 122°27'115.5
2015-Jul-28 23:31N 47°31' W 122°28'3 3.3
2015-Jul-28 22:34N 47°31' W 122°24'0 1.1
2015-Jul-28 22:25N 47°31' W 122°24'2 1.9
2015-Jul-28 21:33N 47°31' W 122°26'113.1
2015-Jul-28 21:30N 47°31' W 122°25'2 1.7
2015-Jul-28 20:34N 47°31' W 122°28'1 9.7
2015-Jul-28 20:29N 47°31' W 122°27'1 0.9
2015-Jul-28 19:33N 47°31' W 122°28'0 4.8
2015-Jul-28 19:29N 47°31' W 122°28'3 3.0
2015-Jul-28 18:33N 47°31' W 122°24'1 2.7
2015-Jul-28 18:20N 47°31' W 122°25'1 0.8
2015-Jul-28 17:33N 47°31' W 122°24'0 7.5
2015-Jul-28 17:30N 47°31' W 122°24'2 2.5
2015-Jul-28 16:33N 47°31' W 122°28'0 0.1
2015-Jul-28 16:30N 47°31' W 122°28'0 0.1
2015-Jul-28 15:34N 47°31' W 122°28'1 9.8
2015-Jul-28 15:29N 47°31' W 122°29'2 2.6
2015-Jul-28 14:33N 47°31' W 122°25'1 9.6
2015-Jul-28 14:29N 47°31' W 122°26'2 1.8
2015-Jul-28 13:34N 47°31' W 122°24'112.4
2015-Jul-28 13:29N 47°31' W 122°25'2 2.1
2015-Jul-28 12:33N 47°31' W 122°28'0 0.0
2015-Jul-28 12:29N 47°31' W 122°28'0 0.0
2015-Jul-28 11:33N 47°31' W 122°28'0 3.1
2015-Jul-28 11:29N 47°31' W 122°28'1 1.2
2015-Jul-28 10:34N 47°31' W 122°29'0 0.5
2015-Jul-28 09:59N 47°31' W 122°30'2 5.7
2015-Jul-28 09:34N 47°31' W 122°26'116.5
2015-Jul-28 09:29N 47°31' W 122°24'1 1.6
2015-Jul-28 08:33N 47°31' W 122°27'116.3
2015-Jul-28 08:28N 47°31' W 122°25'2 2.5
2015-Jul-28 07:34N 47°31' W 122°28'212.0
2015-Jul-28 07:24N 47°31' W 122°25'3 3.8
2015-Jul-28 06:33N 47°31' W 122°30'0 0.0
2015-Jul-28 06:28N 47°31' W 122°30'3 5.3
2015-Jul-28 05:53N 47°31' W 122°25'1 3.9
2015-Jul-28 05:34N 47°31' W 122°27'1 1.4
2015-Jul-28 04:33N 47°31' W 122°25'0 0.0
2015-Jul-28 04:33N 47°31' W 122°25'2 2.4
2015-Jul-28 03:34N 47°31' W 122°29'0 9.4
2015-Jul-28 03:33N 47°31' W 122°29'3 3.1
2015-Jul-28 02:33N 47°31' W 122°24'0 0.7
2015-Jul-28 02:08N 47°31' W 122°24'4 6.3
2015-Jul-28 01:33N 47°31' W 122°30'0 1.4
2015-Jul-28 01:33N 47°31' W 122°30'4 4.0
2015-Jul-28 00:33N 47°31' W 122°24'0 2.8
2015-Jul-28 00:22N 47°31' W 122°25'0 0.6
2015-Jul-27 23:33N 47°31' W 122°24'1 8.3
2015-Jul-27 23:28N 47°32' W 122°25'1 0.8
2015-Jul-27 22:33N 47°31' W 122°24'1 2.5
2015-Jul-27 22:13N 47°32' W 122°25'3 4.2
2015-Jul-27 21:34N 47°31' W 122°29'012.0
2015-Jul-27 21:32N 47°31' W 122°29'1 1.0
2015-Jul-27 20:34N 47°31' W 122°28'0 5.1
2015-Jul-27 20:32N 47°31' W 122°28'0 0.2
2015-Jul-27 19:34N 47°31' W 122°28'0 2.8
2015-Jul-27 19:32N 47°31' W 122°28'3 2.8
2015-Jul-27 18:33N 47°31' W 122°24'0 1.8
2015-Jul-27 18:22N 47°31' W 122°24'0 0.2
2015-Jul-27 17:34N 47°31' W 122°24'013.3
2015-Jul-27 17:32N 47°31' W 122°24'2 2.4
2015-Jul-27 16:34N 47°31' W 122°28'0 7.6
2015-Jul-27 16:32N 47°31' W 122°28'0 0.3
2015-Jul-27 15:34N 47°31' W 122°28'015.0
2015-Jul-27 15:32N 47°31' W 122°29'3 2.9
2015-Jul-27 14:34N 47°32' W 122°25'0 5.9
2015-Jul-27 14:31N 47°32' W 122°25'1 0.7
2015-Jul-27 13:34N 47°31' W 122°24'0 8.2
2015-Jul-27 13:31N 47°31' W 122°24'2 2.6
2015-Jul-27 12:33N 47°31' W 122°28'0 0.0
2015-Jul-27 12:32N 47°31' W 122°28'0 0.0
2015-Jul-27 11:33N 47°31' W 122°28'0 2.5
2015-Jul-27 11:31N 47°31' W 122°28'1 1.3
2015-Jul-27 10:33N 47°31' W 122°30'0 3.0
2015-Jul-27 10:31N 47°31' W 122°30'1 1.3
2015-Jul-27 09:33N 47°31' W 122°28'0 0.0
2015-Jul-27 09:31N 47°31' W 122°28'1 1.3
2015-Jul-27 08:34N 47°31' W 122°30'0 4.5
2015-Jul-27 08:31N 47°31' W 122°29'0 0.3
2015-Jul-27 07:33N 47°31' W 122°30'0 0.0
2015-Jul-27 07:31N 47°31' W 122°30'4 4.2
2015-Jul-27 06:33N 47°31' W 122°24'1 3.4
2015-Jul-27 06:21N 47°31' W 122°25'313.4
2015-Jul-27 06:06N 47°31' W 122°30'1 2.5
2015-Jul-27 05:33N 47°31' W 122°28'0 0.0
2015-Jul-27 04:33N 47°31' W 122°28'0 8.6
2015-Jul-27 04:31N 47°31' W 122°27'0 0.3
2015-Jul-27 03:34N 47°31' W 122°28'114.7
2015-Jul-27 03:31N 47°31' W 122°29'3 3.5
2015-Jul-27 02:34N 47°31' W 122°24'1 2.9
2015-Jul-27 02:20N 47°31' W 122°25'1 0.8
2015-Jul-27 01:33N 47°31' W 122°24'0 3.1
2015-Jul-27 01:26N 47°31' W 122°24'0 0.5
2015-Jul-27 00:34N 47°31' W 122°24'0 2.7
2015-Jul-27 00:30N 47°31' W 122°24'3 3.1
2015-Jul-26 23:34N 47°31' W 122°28'0 7.2
2015-Jul-26 23:30N 47°31' W 122°28'0 0.0
2015-Jul-26 22:33N 47°31' W 122°28'0 0.0
2015-Jul-26 22:30N 47°31' W 122°28'1 1.1
2015-Jul-26 21:34N 47°31' W 122°27'116.6
2015-Jul-26 21:30N 47°31' W 122°25'2 1.6
2015-Jul-26 20:33N 47°31' W 122°27'116.2
2015-Jul-26 20:30N 47°31' W 122°26'2 2.6
2015-Jul-26 19:33N 47°31' W 122°30'0 0.0
2015-Jul-26 19:25N 47°31' W 122°30'4 4.7
2015-Jul-26 18:34N 47°31' W 122°24'110.4
2015-Jul-26 18:29N 47°31' W 122°25'2 2.2
2015-Jul-26 17:33N 47°31' W 122°28'0 0.0
2015-Jul-26 17:30N 47°31' W 122°28'0 0.0
2015-Jul-26 16:34N 47°31' W 122°28'0 0.0
2015-Jul-26 16:29N 47°31' W 122°28'3 2.8
2015-Jul-26 15:33N 47°31' W 122°24'4 3.9
2015-Jul-26 14:33N 47°31' W 122°30'4 3.8
2015-Jul-26 13:33N 47°31' W 122°24'4 6.6
2015-Jul-26 12:58N 47°31' W 122°30'1 3.1
2015-Jul-26 12:33N 47°31' W 122°28'0 0.0
2015-Jul-26 12:29N 47°31' W 122°28'1 0.6
2015-Jul-26 11:34N 47°31' W 122°28'112.7
2015-Jul-26 11:29N 47°31' W 122°30'0 0.1
2015-Jul-26 10:33N 47°31' W 122°30'0 0.1
2015-Jul-26 10:29N 47°31' W 122°30'1 1.4
2015-Jul-26 09:33N 47°31' W 122°28'0 0.0
2015-Jul-26 09:28N 47°31' W 122°28'1 1.4
2015-Jul-26 08:34N 47°31' W 122°30'0 0.0
2015-Jul-26 08:33N 47°31' W 122°30'0 0.2
2015-Jul-26 07:33N 47°31' W 122°30'0 8.0
2015-Jul-26 07:33N 47°31' W 122°30'4 3.9
2015-Jul-26 06:33N 47°31' W 122°24'0 3.2
2015-Jul-26 06:28N 47°31' W 122°24'411.3
2015-Jul-26 06:08N 47°31' W 122°30'2 3.9
2015-Jul-26 05:34N 47°31' W 122°27'1 1.0
2015-Jul-26 04:34N 47°31' W 122°28'0 3.5
2015-Jul-26 04:33N 47°31' W 122°28'1 0.5
2015-Jul-26 03:33N 47°31' W 122°28'0 9.5
2015-Jul-26 03:33N 47°31' W 122°29'3 3.2
2015-Jul-26 02:33N 47°31' W 122°24'1 6.7
2015-Jul-26 02:28N 47°31' W 122°25'1 1.5
2015-Jul-26 01:33N 47°31' W 122°27'013.7
2015-Jul-26 01:33N 47°31' W 122°27'1 0.7
2015-Jul-26 00:33N 47°31' W 122°28'0 0.0
2015-Jul-26 00:33N 47°31' W 122°28'1 1.2
2015-Jul-25 23:34N 47°31' W 122°26'015.4
2015-Jul-25 23:33N 47°31' W 122°26'2 2.4
2015-Jul-25 22:33N 47°31' W 122°29'0 5.7
2015-Jul-25 22:32N 47°31' W 122°30'4 4.0
2015-Jul-25 21:33N 47°31' W 122°24'1 4.0
2015-Jul-25 21:17N 47°31' W 122°25'1 1.5
2015-Jul-25 20:34N 47°31' W 122°24'0 0.9
2015-Jul-25 20:12N 47°31' W 122°24'4 5.7
2015-Jul-25 19:34N 47°31' W 122°30'0 1.7
2015-Jul-25 19:32N 47°31' W 122°30'4 3.8
2015-Jul-25 18:33N 47°31' W 122°24'013.3
2015-Jul-25 18:32N 47°31' W 122°25'2 2.3
2015-Jul-25 17:33N 47°31' W 122°28'0 0.0
2015-Jul-25 17:32N 47°31' W 122°28'0 0.0
2015-Jul-25 16:33N 47°31' W 122°28'0 0.0
2015-Jul-25 16:31N 47°31' W 122°28'1 1.5
2015-Jul-25 15:33N 47°31' W 122°26'113.4
2015-Jul-25 15:31N 47°31' W 122°25'3 3.4
2015-Jul-25 14:33N 47°31' W 122°30'0 0.0
2015-Jul-25 14:32N 47°31' W 122°30'4 4.0
2015-Jul-25 13:34N 47°31' W 122°24'113.1
2015-Jul-25 13:31N 47°31' W 122°25'2 2.1
2015-Jul-25 12:33N 47°31' W 122°28'0 0.0
2015-Jul-25 12:31N 47°31' W 122°28'0 0.0
2015-Jul-25 11:33N 47°31' W 122°28'0 0.3
2015-Jul-25 11:31N 47°31' W 122°28'1 1.4
2015-Jul-25 10:33N 47°31' W 122°30'0 0.0
2015-Jul-25 10:06N 47°31' W 122°30'1 2.4
2015-Jul-25 09:34N 47°31' W 122°28'0 6.7
2015-Jul-25 09:31N 47°31' W 122°28'0 0.4
2015-Jul-25 08:33N 47°31' W 122°28'0 0.0
2015-Jul-25 08:31N 47°31' W 122°28'1 1.3
2015-Jul-25 07:33N 47°31' W 122°30'0 7.4
2015-Jul-25 07:31N 47°31' W 122°29'2 2.1
2015-Jul-25 06:34N 47°31' W 122°26'116.7
2015-Jul-25 06:31N 47°31' W 122°27'1 1.2
2015-Jul-25 06:01N 47°31' W 122°28'3 6.2
2015-Jul-25 05:34N 47°31' W 122°24'3 3.2
2015-Jul-25 04:34N 47°31' W 122°29'110.7
2015-Jul-25 04:30N 47°31' W 122°28'0 0.2
2015-Jul-25 03:33N 47°31' W 122°28'0 0.0
2015-Jul-25 03:30N 47°31' W 122°28'1 1.3
2015-Jul-25 02:33N 47°31' W 122°30'0 1.3
2015-Jul-25 02:30N 47°31' W 122°30'4 4.3
2015-Jul-25 01:34N 47°31' W 122°24'1 7.6
2015-Jul-25 01:25N 47°31' W 122°25'1 1.7
2015-Jul-25 00:34N 47°31' W 122°28'115.9
2015-Jul-25 00:30N 47°31' W 122°26'1 1.3
2015-Jul-24 23:33N 47°31' W 122°28'0 0.0
2015-Jul-24 23:30N 47°31' W 122°28'0 0.3
2015-Jul-24 22:34N 47°31' W 122°27'0 5.0
2015-Jul-24 22:30N 47°31' W 122°28'2 2.2
2015-Jul-24 21:34N 47°31' W 122°25'116.7
2015-Jul-24 21:30N 47°31' W 122°26'1 1.1
2015-Jul-24 20:33N 47°31' W 122°28'0 0.0
2015-Jul-24 20:30N 47°31' W 122°28'0 0.0
2015-Jul-24 19:33N 47°31' W 122°28'0 0.0
2015-Jul-24 19:29N 47°31' W 122°28'0 0.0
2015-Jul-24 18:33N 47°31' W 122°28'0 1.6
2015-Jul-24 18:29N 47°31' W 122°28'2 2.5
2015-Jul-24 17:33N 47°31' W 122°24'0 0.5
2015-Jul-24 17:09N 47°31' W 122°25'3 5.8
2015-Jul-24 16:33N 47°31' W 122°30'0 2.0
2015-Jul-24 16:19N 47°31' W 122°29'3 4.6
2015-Jul-24 15:33N 47°31' W 122°24'1 7.9
2015-Jul-24 15:29N 47°31' W 122°25'2 2.2
2015-Jul-24 14:33N 47°31' W 122°28'0 0.0
2015-Jul-24 14:29N 47°31' W 122°28'0 0.0
2015-Jul-24 13:33N 47°31' W 122°28'0 0.1
2015-Jul-24 13:29N 47°31' W 122°28'0 0.0
2015-Jul-24 12:34N 47°31' W 122°28'0 0.0
2015-Jul-24 12:33N 47°31' W 122°28'0 0.0
2015-Jul-24 11:34N 47°31' W 122°28'0 0.0
2015-Jul-24 11:33N 47°31' W 122°28'0 0.0
2015-Jul-24 10:33N 47°31' W 122°28'0 0.0
2015-Jul-24 10:33N 47°31' W 122°28'0 0.0
2015-Jul-24 09:33N 47°31' W 122°28'0 0.0
2015-Jul-24 09:33N 47°31' W 122°28'0 0.0
2015-Jul-24 08:33N 47°31' W 122°28'0 0.0
2015-Jul-24 08:33N 47°31' W 122°28'0 0.0
2015-Jul-24 07:33N 47°31' W 122°28'0 0.1
2015-Jul-24 07:28N 47°31' W 122°28'0 0.0
2015-Jul-24 06:33N 47°31' W 122°28'0 0.0
2015-Jul-24 06:22N 47°31' W 122°28'0 0.0
2015-Jul-24 06:03N 47°31' W 122°28'0 0.0
2015-Jul-24 05:33N 47°31' W 122°28'  

Dump ship's entire track history